createdAt,value
2019-03-30T00:00:59.240Z,4.00
2019-03-30T00:03:31.750Z,3.94
2019-03-30T00:06:03.602Z,3.93
2019-03-30T00:08:35.362Z,3.89
2019-03-30T00:11:06.824Z,3.84
2019-03-30T00:13:38.679Z,3.78
2019-03-30T00:16:10.561Z,3.77
2019-03-30T00:18:51.536Z,3.76
2019-03-30T00:21:23.468Z,3.77
2019-03-30T00:23:57.473Z,3.68
2019-03-30T00:26:38.673Z,3.62
2019-03-30T00:29:20.694Z,3.57
2019-03-30T00:31:52.613Z,3.60
2019-03-30T00:34:24.607Z,3.59
2019-03-30T00:36:58.200Z,3.55
2019-03-30T00:39:31.064Z,3.52
2019-03-30T00:42:02.952Z,3.46
2019-03-30T00:44:34.164Z,3.40
2019-03-30T00:47:06.875Z,3.43
2019-03-30T00:49:48.896Z,3.47
2019-03-30T00:52:13.248Z,3.45
2019-03-30T00:54:47.232Z,3.50
2019-03-30T00:57:18.392Z,3.55
2019-03-30T00:59:51.085Z,3.44
2019-03-30T01:02:24.051Z,3.38
2019-03-30T01:04:57.349Z,3.26
2019-03-30T01:07:45.436Z,3.31
2019-03-30T01:10:17.344Z,3.35
2019-03-30T01:12:48.815Z,3.43
2019-03-30T01:15:20.763Z,3.37
2019-03-30T01:18:00.115Z,3.34
2019-03-30T01:20:39.613Z,3.39
2019-03-30T01:23:12.674Z,3.44
2019-03-30T01:25:47.579Z,3.43
2019-03-30T01:28:20.865Z,3.38
2019-03-30T01:30:52.058Z,3.35
2019-03-30T01:33:24.623Z,3.24
2019-03-30T01:35:58.168Z,3.13
2019-03-30T02:03:05.669Z,2.77
2019-03-30T02:05:37.488Z,2.78
2019-03-30T02:08:08.896Z,2.80
2019-03-30T02:10:45.758Z,2.81
2019-03-30T02:13:17.266Z,2.80
2019-03-30T02:15:48.959Z,2.75
2019-03-30T02:18:20.614Z,2.71
2019-03-30T02:20:52.689Z,2.76
2019-03-30T02:23:24.502Z,2.76
2019-03-30T02:25:56.511Z,2.72
2019-03-30T02:28:28.896Z,2.59
2019-03-30T02:31:00.447Z,2.38
2019-03-30T02:33:32.105Z,2.25
2019-03-30T02:36:05.436Z,2.32
2019-03-30T02:38:38.811Z,2.39
2019-03-30T02:41:10.575Z,2.43
2019-03-30T02:43:42.763Z,2.52
2019-03-30T02:46:14.909Z,2.57
2019-03-30T02:48:47.124Z,2.59
2019-03-30T02:51:18.604Z,2.53
2019-03-30T02:53:50.645Z,2.49
2019-03-30T02:56:22.070Z,2.45
2019-03-30T02:58:53.516Z,2.41
2019-03-30T03:01:24.992Z,2.42
2019-03-30T03:04:01.030Z,2.40
2019-03-30T03:06:33.193Z,2.37
2019-03-30T03:09:08.130Z,2.34
2019-03-30T03:11:39.865Z,2.35
2019-03-30T03:14:11.357Z,2.31
2019-03-30T03:16:42.777Z,2.29
2019-03-30T03:19:14.005Z,2.32
2019-03-30T03:21:46.189Z,2.29
2019-03-30T03:24:18.735Z,2.26
2019-03-30T03:26:50.851Z,2.38
2019-03-30T03:29:22.604Z,2.52
2019-03-30T03:31:54.069Z,2.40
2019-03-30T03:34:25.991Z,2.28
2019-03-30T03:36:58.095Z,2.28
2019-03-30T03:39:29.537Z,2.25
2019-03-30T03:42:01.346Z,2.20
2019-03-30T03:44:33.156Z,2.13
2019-03-30T03:47:05.045Z,2.07
2019-03-30T03:49:36.771Z,2.08
2019-03-30T03:52:12.561Z,2.05
2019-03-30T03:54:46.805Z,2.23
2019-03-30T03:57:20.573Z,2.32
2019-03-30T03:59:55.167Z,2.34
2019-03-30T04:02:33.177Z,2.26
2019-03-30T04:05:07.194Z,2.16
2019-03-30T04:07:43.083Z,2.05
2019-03-30T04:10:14.622Z,1.97
2019-03-30T04:12:48.934Z,1.87
2019-03-30T04:15:27.767Z,1.83
2019-03-30T04:17:59.792Z,1.91
2019-03-30T04:20:31.860Z,1.99
2019-03-30T04:23:03.021Z,2.00
2019-03-30T04:25:34.458Z,2.11
2019-03-30T04:28:05.852Z,2.06
2019-03-30T04:30:37.275Z,2.01
2019-03-30T04:33:08.713Z,2.11
2019-03-30T04:35:40.270Z,2.18
2019-03-30T04:38:19.003Z,2.19
2019-03-30T04:40:51.171Z,2.07
2019-03-30T04:43:23.027Z,1.95
2019-03-30T04:45:54.461Z,1.88
2019-03-30T04:48:29.318Z,1.78
2019-03-30T04:51:00.417Z,1.79
2019-03-30T04:53:32.824Z,1.75
2019-03-30T04:56:04.984Z,1.67
2019-03-30T04:58:36.939Z,1.56
2019-03-30T05:01:08.361Z,1.43
2019-03-30T05:03:40.154Z,1.41
2019-03-30T05:06:12.420Z,1.57
2019-03-30T05:08:43.858Z,1.63
2019-03-30T05:11:16.053Z,1.71
2019-03-30T05:13:47.855Z,1.72
2019-03-30T05:16:29.782Z,1.69
2019-03-30T05:19:01.364Z,1.68
2019-03-30T05:21:33.681Z,1.60
2019-03-30T05:24:05.460Z,1.61
2019-03-30T05:26:36.726Z,1.57
2019-03-30T05:29:09.768Z,1.54
2019-03-30T05:31:41.900Z,1.54
2019-03-30T05:34:15.464Z,1.61
2019-03-30T05:36:47.323Z,1.69
2019-03-30T05:39:18.795Z,1.72
2019-03-30T05:41:50.842Z,1.75
2019-03-30T05:44:27.725Z,1.80
2019-03-30T05:47:00.905Z,1.88
2019-03-30T05:49:32.949Z,2.00
2019-03-30T05:52:04.834Z,2.13
2019-03-30T05:54:36.287Z,2.20
2019-03-30T05:57:07.733Z,2.28
2019-03-30T05:59:39.209Z,2.43
2019-03-30T06:02:10.963Z,2.57
2019-03-30T06:04:42.082Z,2.69
2019-03-30T06:07:14.360Z,2.86
2019-03-30T06:09:46.095Z,3.00
2019-03-30T06:12:18.274Z,3.17
2019-03-30T06:14:50.058Z,3.32
2019-03-30T06:17:22.200Z,3.53
2019-03-30T06:19:55.259Z,3.67
2019-03-30T06:22:39.709Z,3.83
2019-03-30T06:25:01.021Z,3.92
2019-03-30T06:27:42.314Z,4.10
2019-03-30T06:30:29.228Z,4.34
2019-03-30T06:33:02.190Z,4.59
2019-03-30T06:35:33.384Z,4.81
2019-03-30T06:38:05.262Z,5.00
2019-03-30T06:40:37.603Z,5.20
2019-03-30T06:43:09.112Z,5.44
2019-03-30T06:45:41.241Z,5.76
2019-03-30T06:48:22.619Z,6.12
2019-03-30T06:50:56.354Z,7.39
2019-03-30T06:53:38.728Z,8.88
2019-03-30T06:56:10.590Z,10.29
2019-03-30T06:58:42.451Z,11.57
2019-03-30T07:01:16.475Z,12.96
2019-03-30T07:03:53.626Z,13.92
2019-03-30T07:06:27.781Z,14.80
2019-03-30T07:09:01.176Z,15.27
2019-03-30T07:11:51.374Z,15.94
2019-03-30T07:14:25.468Z,15.81
2019-03-30T07:17:06.965Z,16.25
2019-03-30T07:19:42.903Z,16.01
2019-03-30T07:22:15.197Z,15.25
2019-03-30T07:24:47.253Z,13.58
2019-03-30T07:27:25.964Z,13.48
2019-03-30T07:30:04.690Z,13.66
2019-03-30T07:32:36.964Z,14.48
2019-03-30T07:35:17.936Z,15.62
2019-03-30T07:37:50.766Z,15.45
2019-03-30T07:40:22.154Z,16.95
2019-03-30T07:42:54.338Z,17.49
2019-03-30T07:45:26.190Z,17.55
2019-03-30T07:48:00.505Z,18.23
2019-03-30T07:50:32.390Z,17.13
2019-03-30T07:53:03.830Z,17.69
2019-03-30T07:55:35.811Z,17.95
2019-03-30T07:58:17.290Z,17.92
2019-03-30T08:00:48.817Z,19.03
2019-03-30T08:03:20.798Z,20.15
2019-03-30T08:05:54.338Z,20.17
2019-03-30T08:08:27.105Z,20.40
2019-03-30T08:10:58.928Z,20.18
2019-03-30T08:13:31.298Z,20.12
2019-03-30T08:16:03.258Z,18.54
2019-03-30T08:18:34.482Z,18.41
2019-03-30T08:21:06.974Z,17.52
2019-03-30T08:23:40.769Z,20.17
2019-03-30T08:26:12.156Z,21.60
2019-03-30T08:28:44.507Z,21.99
2019-03-30T08:31:17.282Z,21.92
2019-03-30T08:33:49.147Z,21.94
2019-03-30T08:36:20.617Z,21.80
2019-03-30T08:38:52.445Z,22.83
2019-03-30T08:41:24.324Z,22.83
2019-03-30T08:43:56.793Z,22.84
2019-03-30T08:46:28.323Z,23.11
2019-03-30T08:49:00.322Z,23.13
2019-03-30T08:51:33.624Z,23.06
2019-03-30T08:54:11.712Z,23.25
2019-03-30T08:56:44.006Z,22.94
2019-03-30T08:59:16.344Z,22.86
2019-03-30T09:01:48.582Z,19.55
2019-03-30T09:04:19.754Z,19.97
2019-03-30T09:06:51.618Z,19.63
2019-03-30T09:09:23.368Z,21.21
2019-03-30T09:11:54.841Z,21.08
2019-03-30T09:14:26.789Z,21.27
2019-03-30T09:16:58.560Z,20.50
2019-03-30T09:19:29.992Z,20.32
2019-03-30T09:22:01.849Z,19.47
2019-03-30T09:24:35.714Z,18.75
2019-03-30T09:27:07.524Z,19.11
2019-03-30T09:29:41.802Z,20.75
2019-03-30T09:32:14.990Z,22.80
2019-03-30T09:34:46.681Z,22.34
2019-03-30T09:37:20.234Z,20.87
2019-03-30T09:39:52.157Z,22.22
2019-03-30T09:42:42.909Z,19.14
2019-03-30T09:45:14.412Z,20.43
2019-03-30T09:47:47.482Z,21.73
2019-03-30T09:50:19.169Z,19.83
2019-03-30T09:52:51.000Z,21.07
2019-03-30T09:55:22.547Z,22.48
2019-03-30T09:57:54.889Z,24.49
2019-03-30T10:00:26.391Z,25.09
2019-03-30T10:02:57.859Z,23.23
2019-03-30T10:05:29.358Z,21.53
2019-03-30T10:08:00.831Z,21.06
2019-03-30T10:10:32.629Z,22.64
2019-03-30T10:13:04.749Z,22.55
2019-03-30T10:15:35.887Z,23.33
2019-03-30T10:18:07.325Z,21.20
2019-03-30T10:20:39.546Z,22.23
2019-03-30T10:23:11.599Z,22.36
2019-03-30T10:25:43.030Z,21.97
2019-03-30T10:28:14.797Z,24.88
2019-03-30T10:30:46.661Z,24.23
2019-03-30T10:33:18.106Z,22.65
2019-03-30T10:35:49.565Z,22.86
2019-03-30T10:38:21.088Z,23.50
2019-03-30T10:40:52.884Z,23.97
2019-03-30T10:43:24.673Z,21.20
2019-03-30T10:46:23.625Z,22.57
2019-03-30T10:48:54.742Z,25.85
2019-03-30T10:51:26.543Z,26.12
2019-03-30T10:54:16.934Z,23.96
2019-03-30T10:56:52.241Z,24.33
2019-03-30T10:59:23.707Z,21.62
2019-03-30T11:01:55.438Z,23.60
2019-03-30T11:04:27.601Z,25.13
2019-03-30T11:07:00.105Z,24.07
2019-03-30T11:09:33.349Z,22.85
2019-03-30T11:12:06.380Z,24.82
2019-03-30T11:14:38.568Z,27.24
2019-03-30T11:17:10.715Z,28.59
2019-03-30T11:19:42.686Z,25.62
2019-03-30T11:22:14.687Z,24.80
2019-03-30T11:24:46.196Z,25.50
2019-03-30T11:27:18.641Z,25.41
2019-03-30T11:29:50.448Z,26.00
2019-03-30T11:32:22.263Z,26.86
2019-03-30T11:34:54.061Z,25.50
2019-03-30T11:37:26.086Z,26.03
2019-03-30T11:39:57.607Z,28.63
2019-03-30T11:42:45.832Z,29.03
2019-03-30T11:45:18.995Z,29.33
2019-03-30T11:47:50.824Z,29.41
2019-03-30T11:50:24.126Z,27.56
2019-03-30T11:53:07.485Z,29.40
2019-03-30T11:55:40.986Z,29.06
2019-03-30T11:58:12.503Z,26.11
2019-03-30T12:00:43.969Z,27.02
2019-03-30T12:03:15.792Z,28.19
2019-03-30T12:05:48.411Z,30.00
2019-03-30T12:08:20.076Z,29.04
2019-03-30T12:10:51.528Z,25.50
2019-03-30T12:13:23.979Z,27.24
2019-03-30T12:15:55.772Z,29.76
2019-03-30T12:18:28.484Z,29.47
2019-03-30T12:21:02.487Z,31.53
2019-03-30T12:23:34.451Z,31.33
2019-03-30T12:26:06.177Z,32.02
2019-03-30T12:28:39.065Z,33.60
2019-03-30T12:31:12.231Z,32.68
2019-03-30T12:33:45.108Z,31.14
2019-03-30T12:36:17.155Z,31.90
2019-03-30T12:38:50.269Z,33.37
2019-03-30T12:41:22.204Z,28.64
2019-03-30T12:43:54.639Z,29.79
2019-03-30T12:46:26.483Z,30.92
2019-03-30T12:48:58.156Z,33.00
2019-03-30T12:51:32.350Z,33.13
2019-03-30T12:54:03.554Z,29.18
2019-03-30T12:56:35.518Z,26.51
2019-03-30T12:59:07.499Z,26.49
2019-03-30T13:01:39.433Z,29.12
2019-03-30T13:04:11.291Z,29.06
2019-03-30T13:06:43.610Z,26.66
2019-03-30T13:09:15.543Z,27.17
2019-03-30T13:11:48.961Z,26.92
2019-03-30T13:14:21.269Z,26.33
2019-03-30T13:16:53.008Z,26.23
2019-03-30T13:19:25.490Z,26.84
2019-03-30T13:21:57.034Z,27.75
2019-03-30T13:24:28.894Z,28.32
2019-03-30T13:27:01.417Z,26.74
2019-03-30T13:29:33.737Z,28.62
2019-03-30T13:32:06.523Z,26.95
2019-03-30T13:34:38.789Z,28.88
2019-03-30T13:37:20.613Z,30.48
2019-03-30T13:39:52.564Z,27.01
2019-03-30T13:42:31.281Z,27.60
2019-03-30T13:45:03.895Z,30.35
2019-03-30T13:47:35.805Z,31.06
2019-03-30T13:50:08.064Z,31.01
2019-03-30T13:52:43.155Z,31.38
2019-03-30T13:55:15.766Z,29.58
2019-03-30T13:57:47.247Z,32.20
2019-03-30T14:00:19.749Z,27.79
2019-03-30T14:02:52.067Z,28.25
2019-03-30T14:05:26.008Z,31.01
2019-03-30T14:07:57.879Z,31.86
2019-03-30T14:10:29.751Z,30.13
2019-03-30T14:13:01.845Z,32.58
2019-03-30T14:15:33.737Z,32.26
2019-03-30T14:18:06.852Z,31.06
2019-03-30T14:20:38.803Z,29.69
2019-03-30T14:23:10.860Z,27.93
2019-03-30T14:25:50.681Z,27.78
2019-03-30T14:28:23.011Z,28.33
2019-03-30T14:30:55.219Z,30.28
2019-03-30T14:33:27.917Z,31.53
2019-03-30T14:36:00.532Z,30.86
2019-03-30T14:38:32.960Z,32.58
2019-03-30T14:41:04.618Z,32.54
2019-03-30T14:43:36.279Z,33.42
2019-03-30T14:46:08.999Z,32.43
2019-03-30T14:48:53.597Z,28.81
2019-03-30T14:51:26.170Z,31.06
2019-03-30T14:53:59.352Z,32.60
2019-03-30T14:56:45.003Z,34.10
2019-03-30T14:59:10.297Z,33.38
2019-03-30T15:01:39.444Z,29.21
2019-03-30T15:04:11.254Z,32.30
2019-03-30T15:06:42.884Z,30.11
2019-03-30T15:09:15.077Z,30.09
2019-03-30T15:11:47.317Z,28.92
2019-03-30T15:14:19.539Z,32.73
2019-03-30T15:16:50.965Z,32.04
2019-03-30T15:19:23.342Z,33.00
2019-03-30T15:21:56.298Z,29.24
2019-03-30T15:24:27.884Z,32.86
2019-03-30T15:27:00.636Z,33.30
2019-03-30T15:29:32.263Z,30.88
2019-03-30T15:32:04.173Z,33.05
2019-03-30T15:34:35.630Z,33.58
2019-03-30T15:37:07.465Z,33.32
2019-03-30T15:39:38.914Z,34.50
2019-03-30T15:42:11.815Z,32.46
2019-03-30T15:44:44.106Z,33.24
2019-03-30T15:47:16.321Z,32.76
2019-03-30T15:49:48.013Z,34.54
2019-03-30T15:52:27.563Z,35.23
2019-03-30T15:54:59.085Z,34.97
2019-03-30T15:57:30.325Z,34.87
2019-03-30T16:00:02.202Z,34.92
2019-03-30T16:02:36.072Z,34.19
2019-03-30T16:05:08.191Z,34.18
2019-03-30T16:07:39.754Z,33.46
2019-03-30T16:10:12.612Z,33.32
2019-03-30T16:12:44.455Z,33.87
2019-03-30T16:15:16.927Z,33.71
2019-03-30T16:17:48.915Z,34.03
2019-03-30T16:20:21.282Z,34.35
2019-03-30T16:22:53.759Z,33.43
2019-03-30T16:25:25.358Z,33.99
2019-03-30T16:27:57.043Z,33.57
2019-03-30T16:30:29.641Z,33.52
2019-03-30T16:33:01.194Z,33.09
2019-03-30T16:35:32.971Z,32.52
2019-03-30T16:38:17.637Z,33.18
2019-03-30T16:40:49.273Z,32.62
2019-03-30T16:43:21.854Z,32.24
2019-03-30T16:45:54.524Z,31.71
2019-03-30T16:48:26.279Z,30.95
2019-03-30T16:50:58.248Z,30.87
2019-03-30T16:53:30.099Z,30.84
2019-03-30T16:56:02.493Z,30.51
2019-03-30T16:58:34.238Z,30.06
2019-03-30T17:01:05.778Z,28.80
2019-03-30T17:03:37.217Z,26.44
2019-03-30T17:06:09.916Z,24.64
2019-03-30T17:08:42.253Z,23.29
2019-03-30T17:11:14.451Z,21.99
2019-03-30T17:13:46.149Z,20.66
2019-03-30T17:16:18.310Z,19.90
2019-03-30T17:18:50.070Z,19.41
2019-03-30T17:21:21.602Z,18.79
2019-03-30T17:23:53.544Z,18.40
2019-03-30T17:26:25.048Z,17.94
2019-03-30T17:28:56.546Z,17.49
2019-03-30T17:31:28.509Z,17.06
2019-03-30T17:33:59.856Z,16.67
2019-03-30T17:36:31.725Z,16.32
2019-03-30T17:39:05.530Z,15.95
2019-03-30T17:41:37.021Z,15.56
2019-03-30T17:44:09.091Z,15.18
2019-03-30T17:46:41.016Z,14.83
2019-03-30T17:49:12.939Z,14.55
2019-03-30T17:51:44.415Z,14.30
2019-03-30T17:54:15.856Z,14.04
2019-03-30T17:56:47.621Z,13.72
2019-03-30T17:59:19.084Z,13.53
2019-03-30T18:01:51.141Z,13.32
2019-03-30T18:04:22.912Z,13.06
2019-03-30T18:06:55.060Z,12.90
2019-03-30T18:09:26.768Z,12.70
2019-03-30T18:11:58.574Z,12.62
2019-03-30T18:14:30.346Z,12.51
2019-03-30T18:17:02.516Z,12.35
2019-03-30T18:19:33.949Z,12.21
2019-03-30T18:22:05.724Z,12.10
2019-03-30T18:24:37.275Z,12.02
2019-03-30T18:27:08.496Z,11.83
2019-03-30T18:29:40.073Z,11.72
2019-03-30T18:32:12.232Z,11.60
2019-03-30T18:34:44.602Z,11.44
2019-03-30T18:37:16.560Z,11.30
2019-03-30T18:39:49.411Z,11.16
2019-03-30T18:42:21.577Z,11.05
2019-03-30T18:44:56.415Z,10.91
2019-03-30T18:47:28.516Z,10.85
2019-03-30T18:50:00.376Z,10.79
2019-03-30T18:52:32.586Z,10.78
2019-03-30T18:55:04.298Z,10.54
2019-03-30T18:57:36.780Z,10.33
2019-03-30T19:00:08.928Z,10.09
2019-03-30T19:02:41.846Z,9.97
2019-03-30T19:05:13.361Z,9.88
2019-03-30T19:07:44.805Z,9.72
2019-03-30T19:10:16.676Z,9.61
2019-03-30T19:12:48.524Z,9.49
2019-03-30T19:15:20.389Z,9.46
2019-03-30T19:17:52.906Z,9.45
2019-03-30T19:20:24.319Z,9.44
2019-03-30T19:22:56.466Z,9.37
2019-03-30T19:25:29.887Z,9.27
2019-03-30T19:28:01.520Z,9.20
2019-03-30T19:30:33.276Z,9.13
2019-03-30T19:33:04.434Z,9.02
2019-03-30T19:35:36.289Z,8.96
2019-03-30T19:38:10.778Z,8.90
2019-03-30T19:40:41.234Z,8.89
2019-03-30T19:43:13.305Z,8.85
2019-03-30T19:45:44.965Z,8.73
2019-03-30T19:48:16.484Z,8.60
2019-03-30T19:50:48.277Z,8.51
2019-03-30T19:53:20.631Z,8.37
2019-03-30T19:55:52.009Z,8.31
2019-03-30T19:58:24.555Z,8.21
2019-03-30T20:00:56.707Z,8.18
2019-03-30T20:03:28.177Z,8.08
2019-03-30T20:05:59.623Z,7.97
2019-03-30T20:08:32.701Z,7.96
2019-03-30T20:11:04.163Z,8.00
2019-03-30T20:13:36.054Z,8.06
2019-03-30T20:16:08.039Z,8.02
2019-03-30T20:18:40.273Z,7.94
2019-03-30T20:21:12.097Z,7.81
2019-03-30T20:23:43.876Z,7.76
2019-03-30T20:26:15.505Z,7.76
2019-03-30T20:28:48.464Z,7.64
2019-03-30T20:31:19.879Z,7.58
2019-03-30T20:33:51.625Z,7.59
2019-03-30T20:36:23.015Z,7.50
2019-03-30T20:38:55.583Z,7.41
2019-03-30T20:41:27.813Z,7.29
2019-03-30T20:43:58.962Z,7.24
2019-03-30T20:46:30.733Z,7.25
2019-03-30T20:49:03.395Z,7.20
2019-03-30T20:51:35.153Z,7.17
2019-03-30T20:54:07.442Z,7.14
2019-03-30T20:56:38.968Z,7.12
2019-03-30T20:59:11.084Z,7.06
2019-03-30T21:01:42.922Z,7.07
2019-03-30T21:04:14.348Z,6.95
2019-03-30T21:06:45.821Z,6.81
2019-03-30T21:09:19.218Z,6.80
2019-03-30T21:11:50.654Z,6.84
2019-03-30T21:14:22.635Z,6.90
2019-03-30T21:16:54.332Z,6.97
2019-03-30T21:19:28.074Z,6.90
2019-03-30T21:21:59.538Z,6.84
2019-03-30T21:24:30.914Z,6.85
2019-03-30T21:27:20.827Z,6.86
2019-03-30T21:29:54.811Z,6.79
2019-03-30T21:32:26.340Z,6.75
2019-03-30T21:34:58.221Z,6.66
2019-03-30T21:37:30.630Z,6.58
2019-03-30T21:40:02.565Z,6.48
2019-03-30T21:45:25.486Z,6.31
2019-03-30T21:47:57.440Z,6.21
2019-03-30T21:50:28.891Z,6.16
2019-03-30T21:53:00.378Z,6.05
2019-03-30T21:55:32.637Z,6.00
2019-03-30T21:58:04.784Z,5.95
2019-03-30T22:00:41.000Z,6.02
2019-03-30T22:03:12.391Z,6.00
2019-03-30T22:05:45.176Z,5.97
2019-03-30T22:08:17.339Z,5.90
2019-03-30T22:10:49.511Z,5.82
2019-03-30T22:13:21.670Z,5.77
2019-03-30T22:15:53.723Z,5.68
2019-03-30T22:18:25.610Z,5.60
2019-03-30T22:20:57.486Z,5.58
2019-03-30T22:23:29.329Z,5.53
2019-03-30T22:26:01.746Z,5.50
2019-03-30T22:29:36.584Z,5.49
2019-03-30T22:32:07.768Z,5.44
2019-03-30T22:34:39.559Z,5.45
2019-03-30T22:37:10.744Z,5.53
2019-03-30T22:39:43.653Z,5.44
2019-03-30T22:42:15.853Z,5.39
2019-03-30T22:44:47.708Z,5.36
2019-03-30T22:47:19.347Z,5.27
2019-03-30T22:49:51.241Z,5.22
2019-03-30T22:52:23.334Z,5.22
2019-03-30T22:54:55.316Z,5.15
2019-03-30T22:57:28.134Z,5.02
2019-03-30T22:59:59.578Z,5.04
2019-03-30T23:02:30.779Z,5.10
2019-03-30T23:05:03.209Z,5.10
2019-03-30T23:07:39.765Z,5.01
2019-03-30T23:10:12.603Z,4.93
2019-03-30T23:12:44.104Z,4.86
2019-03-30T23:15:15.910Z,4.85
2019-03-30T23:17:47.102Z,4.85
2019-03-30T23:20:18.880Z,4.84
2019-03-30T23:22:51.455Z,4.85
2019-03-30T23:25:22.993Z,4.88
2019-03-30T23:27:55.278Z,4.85
2019-03-30T23:30:26.716Z,4.82
2019-03-30T23:32:59.139Z,4.73
2019-03-30T23:35:30.559Z,4.69
2019-03-30T23:38:02.885Z,4.71
2019-03-30T23:40:35.637Z,4.78
2019-03-30T23:43:07.979Z,4.80
2019-03-30T23:45:39.366Z,4.74
2019-03-30T23:48:10.874Z,4.66
2019-03-30T23:50:46.637Z,4.59
2019-03-30T23:53:18.270Z,4.56
2019-03-30T23:55:50.026Z,4.57
2019-03-30T23:58:21.590Z,4.58
